createdAt,value
2024-03-14T00:01:34.945Z,7.57
2024-03-14T00:04:07.319Z,7.56
2024-03-14T00:06:34.235Z,7.42
2024-03-14T00:09:02.364Z,7.40
2024-03-14T00:11:30.890Z,7.45
2024-03-14T00:13:59.331Z,7.52
2024-03-14T00:16:28.175Z,7.40
2024-03-14T00:18:55.647Z,7.44
2024-03-14T00:21:22.850Z,7.50
2024-03-14T00:23:54.480Z,7.36
2024-03-14T00:26:21.557Z,7.35
2024-03-14T00:28:48.618Z,7.30
2024-03-14T00:31:16.523Z,7.21
2024-03-14T00:33:44.882Z,7.27
2024-03-14T00:36:17.314Z,7.21
2024-03-14T00:38:44.407Z,7.23
2024-03-14T00:41:17.964Z,7.48
2024-03-14T00:43:45.245Z,7.43
2024-03-14T00:46:13.620Z,7.26
2024-03-14T00:48:41.911Z,7.19
2024-03-14T00:51:11.129Z,7.14
2024-03-14T00:53:38.411Z,7.36
2024-03-14T00:56:07.253Z,7.33
2024-03-14T00:58:34.346Z,7.42
2024-03-14T01:01:01.409Z,7.42
2024-03-14T01:03:30.088Z,7.43
2024-03-14T01:05:59.408Z,7.49
2024-03-14T01:08:28.307Z,7.30
2024-03-14T01:10:55.488Z,7.35
2024-03-14T01:13:22.735Z,7.43
2024-03-14T01:15:49.819Z,7.37
2024-03-14T01:18:17.163Z,7.42
2024-03-14T01:20:44.496Z,7.24
2024-03-14T01:23:12.616Z,7.21
2024-03-14T01:25:40.527Z,7.36
2024-03-14T01:28:08.930Z,7.47
2024-03-14T01:30:36.626Z,7.30
2024-03-14T01:33:06.102Z,7.37
2024-03-14T01:35:33.191Z,7.58
2024-03-14T01:38:01.119Z,7.52
2024-03-14T01:40:28.271Z,7.32
2024-03-14T01:42:56.768Z,7.34
2024-03-14T01:45:23.929Z,7.51
2024-03-14T01:47:51.143Z,7.47
2024-03-14T01:50:18.138Z,7.43
2024-03-14T01:52:45.808Z,7.51
2024-03-14T01:55:13.868Z,7.48
2024-03-14T01:57:41.294Z,7.42
2024-03-14T02:00:17.303Z,7.57
2024-03-14T02:02:44.599Z,7.62
2024-03-14T02:05:19.888Z,7.56
2024-03-14T02:07:48.194Z,7.53
2024-03-14T02:10:16.076Z,7.57
2024-03-14T02:12:43.399Z,7.50
2024-03-14T02:15:10.537Z,7.74
2024-03-14T02:17:37.888Z,7.56
2024-03-14T02:20:08.307Z,7.48
2024-03-14T02:22:35.739Z,7.61
2024-03-14T02:25:05.765Z,7.78
2024-03-14T02:27:37.034Z,7.87
2024-03-14T02:30:06.768Z,7.67
2024-03-14T02:32:34.166Z,7.60
2024-03-14T02:35:05.435Z,7.71
2024-03-14T02:37:33.760Z,7.53
2024-03-14T02:40:00.933Z,7.46
2024-03-14T02:42:28.061Z,7.46
2024-03-14T02:44:56.349Z,7.36
2024-03-14T02:47:23.607Z,7.47
2024-03-14T02:49:51.170Z,7.39
2024-03-14T02:52:18.208Z,7.68
2024-03-14T02:54:46.862Z,7.83
2024-03-14T02:57:13.875Z,7.64
2024-03-14T02:59:41.146Z,7.54
2024-03-14T03:02:13.471Z,7.81
2024-03-14T03:04:40.555Z,7.68
2024-03-14T03:07:08.362Z,7.62
2024-03-14T03:09:39.572Z,7.64
2024-03-14T03:12:07.345Z,7.65
2024-03-14T03:14:34.968Z,7.66
2024-03-14T03:17:04.734Z,7.56
2024-03-14T03:19:31.695Z,7.43
2024-03-14T03:22:00.097Z,7.25
2024-03-14T03:24:27.432Z,7.32
2024-03-14T03:26:54.819Z,7.51
2024-03-14T03:29:21.900Z,7.66
2024-03-14T03:31:49.520Z,7.52
2024-03-14T03:34:16.914Z,7.32
2024-03-14T03:36:47.889Z,7.23
2024-03-14T03:39:15.354Z,7.29
2024-03-14T03:41:42.736Z,7.42
2024-03-14T03:44:11.193Z,7.45
2024-03-14T03:46:45.030Z,7.39
2024-03-14T03:49:15.122Z,7.40
2024-03-14T03:51:42.143Z,7.35
2024-03-14T03:54:10.532Z,7.38
2024-03-14T03:56:38.686Z,7.48
2024-03-14T03:59:09.563Z,7.57
2024-03-14T04:01:36.968Z,7.66
2024-03-14T04:04:04.209Z,7.43
2024-03-14T04:06:34.692Z,7.31
2024-03-14T04:09:02.954Z,7.25
2024-03-14T04:11:30.110Z,7.35
2024-03-14T04:13:57.100Z,7.23
2024-03-14T04:16:24.031Z,7.35
2024-03-14T04:18:51.054Z,7.50
2024-03-14T04:21:18.308Z,7.43
2024-03-14T04:23:45.390Z,7.45
2024-03-14T04:26:17.675Z,7.51
2024-03-14T04:28:45.474Z,7.59
2024-03-14T04:31:12.471Z,7.55
2024-03-14T04:33:41.407Z,7.43
2024-03-14T04:36:10.838Z,7.44
2024-03-14T04:38:39.509Z,7.51
2024-03-14T04:41:16.590Z,7.30
2024-03-14T04:43:46.997Z,7.30
2024-03-14T04:46:13.973Z,7.36
2024-03-14T04:48:41.005Z,7.31
2024-03-14T04:51:10.057Z,7.30
2024-03-14T04:53:38.394Z,7.43
2024-03-14T04:56:06.094Z,7.43
2024-03-14T04:58:33.134Z,7.25
2024-03-14T05:01:00.090Z,7.31
2024-03-14T05:03:30.282Z,7.48
2024-03-14T05:06:00.292Z,7.35
2024-03-14T05:08:27.355Z,7.28
2024-03-14T05:10:54.419Z,7.33
2024-03-14T05:13:21.573Z,7.39
2024-03-14T05:15:48.705Z,7.45
2024-03-14T05:18:15.812Z,7.19
2024-03-14T05:20:43.013Z,7.17
2024-03-14T05:23:11.259Z,7.52
2024-03-14T05:25:38.221Z,7.43
2024-03-14T05:28:07.832Z,7.32
2024-03-14T05:30:35.001Z,7.47
2024-03-14T05:33:15.320Z,7.57
2024-03-14T05:35:42.426Z,7.42
2024-03-14T05:38:10.228Z,7.20
2024-03-14T05:40:37.278Z,7.31
2024-03-14T05:43:04.775Z,7.30
2024-03-14T05:45:35.856Z,7.45
2024-03-14T05:48:13.010Z,7.45
2024-03-14T05:50:40.300Z,7.39
2024-03-14T05:53:07.404Z,7.36
2024-03-14T05:55:34.439Z,7.36
2024-03-14T05:58:01.342Z,7.35
2024-03-14T06:00:30.669Z,7.37
2024-03-14T06:02:58.012Z,7.46
2024-03-14T06:05:25.625Z,7.51
2024-03-14T06:07:52.580Z,7.58
2024-03-14T06:10:20.356Z,7.57
2024-03-14T06:12:47.532Z,7.58
2024-03-14T06:15:14.947Z,7.65
2024-03-14T06:17:45.913Z,7.70
2024-03-14T06:20:13.873Z,7.65
2024-03-14T06:22:45.818Z,7.56
2024-03-14T06:25:13.221Z,7.51
2024-03-14T06:27:40.597Z,7.72
2024-03-14T06:30:13.419Z,7.72
2024-03-14T06:32:49.197Z,7.70
2024-03-14T06:35:17.318Z,7.84
2024-03-14T06:37:45.269Z,8.00
2024-03-14T06:40:15.575Z,8.03
2024-03-14T06:42:42.721Z,7.77
2024-03-14T06:45:12.410Z,7.88
2024-03-14T06:47:42.084Z,7.94
2024-03-14T06:50:11.424Z,7.84
2024-03-14T06:52:39.293Z,7.82
2024-03-14T06:55:11.507Z,8.11
2024-03-14T06:57:41.456Z,8.02
2024-03-14T07:00:15.447Z,8.19
2024-03-14T07:02:42.827Z,8.27
2024-03-14T07:05:10.780Z,8.26
2024-03-14T07:07:38.986Z,8.18
2024-03-14T07:10:10.240Z,8.29
2024-03-14T07:12:38.100Z,8.32
2024-03-14T07:15:11.432Z,8.36
2024-03-14T07:17:39.322Z,8.35
2024-03-14T07:20:11.338Z,8.37
2024-03-14T07:22:39.322Z,8.40
2024-03-14T07:25:09.907Z,8.36
2024-03-14T07:27:37.469Z,8.41
2024-03-14T07:30:05.520Z,8.30
2024-03-14T07:32:32.960Z,8.33
2024-03-14T07:35:00.047Z,8.46
2024-03-14T07:37:27.131Z,8.63
2024-03-14T07:39:54.546Z,8.76
2024-03-14T07:42:21.939Z,8.66
2024-03-14T07:44:49.237Z,8.61
2024-03-14T07:47:21.374Z,8.54
2024-03-14T07:49:49.245Z,8.63
2024-03-14T07:52:17.179Z,8.46
2024-03-14T07:54:46.535Z,8.67
2024-03-14T07:57:14.975Z,8.66
2024-03-14T07:59:43.170Z,8.56
2024-03-14T08:02:13.379Z,8.62
2024-03-14T08:04:42.975Z,8.60
2024-03-14T08:07:16.012Z,8.56
2024-03-14T08:09:43.829Z,8.57
2024-03-14T08:12:12.297Z,8.73
2024-03-14T08:14:47.879Z,8.74
2024-03-14T08:17:15.317Z,8.94
2024-03-14T08:19:42.764Z,8.95
2024-03-14T08:22:10.796Z,8.87
2024-03-14T08:24:44.794Z,8.94
2024-03-14T08:27:13.648Z,8.93
2024-03-14T08:29:41.597Z,8.89
2024-03-14T08:32:10.397Z,8.73
2024-03-14T08:34:37.665Z,9.04
2024-03-14T08:37:05.154Z,8.92
2024-03-14T08:39:32.261Z,8.91
2024-03-14T08:42:00.371Z,9.09
2024-03-14T08:44:30.252Z,9.13
2024-03-14T08:46:57.739Z,9.15
2024-03-14T08:49:34.172Z,9.12
2024-03-14T08:52:06.059Z,9.08
2024-03-14T08:54:35.184Z,9.13
2024-03-14T08:57:05.309Z,9.20
2024-03-14T08:59:37.565Z,9.15
2024-03-14T09:02:04.781Z,9.04
2024-03-14T09:04:32.217Z,9.08
2024-03-14T09:06:59.636Z,9.04
2024-03-14T09:09:36.218Z,9.06
2024-03-14T09:12:23.744Z,9.17
2024-03-14T09:14:51.856Z,9.08
2024-03-14T09:17:19.582Z,9.15
2024-03-14T09:19:46.868Z,9.13
2024-03-14T09:22:14.172Z,9.37
2024-03-14T09:24:41.348Z,9.27
2024-03-14T09:27:08.418Z,9.16
2024-03-14T09:29:36.360Z,9.09
2024-03-14T09:32:05.001Z,9.00
2024-03-14T09:34:32.113Z,9.10
2024-03-14T09:36:59.309Z,8.86
2024-03-14T09:39:37.209Z,8.83
2024-03-14T09:42:05.258Z,8.74
2024-03-14T09:44:33.655Z,8.64
2024-03-14T09:47:22.155Z,8.56
2024-03-14T09:49:54.766Z,8.57
2024-03-14T09:52:22.089Z,8.51
2024-03-14T09:54:50.919Z,8.51
2024-03-14T09:57:21.501Z,8.56
2024-03-14T09:59:49.358Z,8.57
2024-03-14T10:02:18.876Z,8.51
2024-03-14T10:04:45.986Z,8.51
2024-03-14T10:07:13.061Z,8.47
2024-03-14T10:09:40.807Z,8.44
2024-03-14T10:12:18.557Z,8.41
2024-03-14T10:14:46.024Z,8.50
2024-03-14T10:17:13.149Z,8.47
2024-03-14T10:19:42.035Z,8.34
2024-03-14T10:22:09.774Z,8.18
2024-03-14T10:24:36.840Z,8.11
2024-03-14T10:27:06.667Z,8.06
2024-03-14T10:29:34.545Z,7.99
2024-03-14T10:32:01.979Z,7.90
2024-03-14T10:34:29.927Z,8.02
2024-03-14T10:36:58.572Z,8.02
2024-03-14T10:39:35.216Z,7.93
2024-03-14T10:42:03.584Z,7.93
2024-03-14T10:44:32.542Z,7.97
2024-03-14T10:47:00.465Z,8.03
2024-03-14T10:49:30.525Z,7.99
2024-03-14T10:52:01.689Z,7.88
2024-03-14T10:54:33.068Z,7.86
2024-03-14T10:57:01.363Z,7.97
2024-03-14T10:59:30.486Z,7.98
2024-03-14T11:01:58.882Z,7.94
2024-03-14T11:04:26.536Z,7.89
2024-03-14T11:06:59.857Z,7.94
2024-03-14T11:09:28.119Z,7.96
2024-03-14T11:11:59.539Z,7.80
2024-03-14T11:14:42.113Z,7.75
2024-03-14T11:17:11.862Z,7.70
2024-03-14T11:19:47.018Z,7.64
2024-03-14T11:22:22.236Z,7.56
2024-03-14T11:24:53.925Z,7.58
2024-03-14T11:27:22.827Z,7.51
2024-03-14T11:29:50.444Z,7.49
2024-03-14T11:32:25.479Z,7.56
2024-03-14T11:34:52.673Z,7.57
2024-03-14T11:37:20.347Z,7.49
2024-03-14T11:39:50.685Z,7.44
2024-03-14T11:42:21.590Z,7.48
2024-03-14T11:44:49.210Z,7.50
2024-03-14T11:47:42.926Z,7.51
2024-03-14T11:50:10.801Z,7.28
2024-03-14T11:52:38.023Z,7.17
2024-03-14T11:55:09.086Z,7.20
2024-03-14T11:57:36.356Z,7.22
2024-03-14T12:00:09.554Z,7.28
2024-03-14T12:02:36.954Z,7.35
2024-03-14T12:05:06.966Z,7.31
2024-03-14T12:07:35.115Z,7.29
2024-03-14T12:10:05.553Z,7.37
2024-03-14T12:12:34.540Z,7.41
2024-03-14T12:15:01.700Z,7.42
2024-03-14T12:17:30.387Z,7.36
2024-03-14T12:19:58.054Z,7.32
2024-03-14T12:22:25.035Z,7.28
2024-03-14T12:25:02.131Z,7.36
2024-03-14T12:27:29.341Z,7.28
2024-03-14T12:29:59.908Z,7.30
2024-03-14T12:32:27.141Z,7.18
2024-03-14T12:34:54.130Z,7.19
2024-03-14T12:37:24.078Z,7.15
2024-03-14T12:39:52.167Z,7.24
2024-03-14T12:42:19.464Z,7.37
2024-03-14T12:44:46.988Z,7.34
2024-03-14T12:47:15.112Z,7.46
2024-03-14T12:49:42.642Z,7.51
2024-03-14T12:52:15.776Z,7.56
2024-03-14T12:54:44.241Z,7.50
2024-03-14T12:57:11.818Z,7.49
2024-03-14T12:59:39.212Z,7.44
2024-03-14T13:02:07.830Z,7.54
2024-03-14T13:04:43.462Z,7.58
2024-03-14T13:07:23.189Z,7.71
2024-03-14T13:10:13.466Z,7.71
2024-03-14T13:12:42.132Z,7.70
2024-03-14T13:15:18.340Z,7.67
2024-03-14T13:17:55.575Z,7.61
2024-03-14T13:20:29.047Z,7.64
2024-03-14T13:22:56.466Z,7.55
2024-03-14T13:25:23.827Z,7.62
2024-03-14T13:27:50.933Z,7.55
2024-03-14T13:30:21.260Z,7.59
2024-03-14T13:32:49.190Z,7.55
2024-03-14T13:35:23.277Z,7.52
2024-03-14T13:37:51.287Z,7.56
2024-03-14T13:40:21.251Z,7.60
2024-03-14T13:42:48.663Z,7.74
2024-03-14T13:45:19.562Z,7.54
2024-03-14T13:47:49.654Z,7.54
2024-03-14T13:50:22.857Z,7.47
2024-03-14T13:52:49.812Z,7.37
2024-03-14T13:55:26.286Z,7.38
2024-03-14T13:57:53.800Z,7.33
2024-03-14T14:00:27.046Z,7.27
2024-03-14T14:02:58.350Z,7.27
2024-03-14T14:05:26.972Z,7.15
2024-03-14T14:07:56.052Z,7.15
2024-03-14T14:10:23.197Z,7.14
2024-03-14T14:12:50.625Z,7.07
2024-03-14T14:15:18.601Z,7.13
2024-03-14T14:17:46.050Z,7.22
2024-03-14T14:20:18.507Z,7.24
2024-03-14T14:22:47.083Z,7.28
2024-03-14T14:25:14.202Z,7.26
2024-03-14T14:27:46.535Z,7.21
2024-03-14T14:30:22.899Z,7.30
2024-03-14T14:32:50.628Z,7.30
2024-03-14T14:35:17.633Z,7.27
2024-03-14T14:37:47.699Z,7.24
2024-03-14T14:40:15.257Z,7.21
2024-03-14T14:42:43.255Z,7.20
2024-03-14T14:45:10.541Z,7.20
2024-03-14T14:47:38.218Z,7.11
2024-03-14T14:50:06.606Z,7.02
2024-03-14T14:52:37.325Z,6.91
2024-03-14T14:55:05.777Z,6.81
2024-03-14T14:57:33.280Z,6.86
2024-03-14T15:00:01.514Z,6.85
2024-03-14T15:02:29.758Z,6.90
2024-03-14T15:04:56.929Z,7.00
2024-03-14T15:07:24.074Z,6.99
2024-03-14T15:09:51.126Z,6.98
2024-03-14T15:12:21.038Z,7.14
2024-03-14T15:14:48.182Z,7.22
2024-03-14T15:17:17.979Z,7.17
2024-03-14T15:19:46.458Z,7.05
2024-03-14T15:22:13.481Z,7.09
2024-03-14T15:24:41.380Z,7.07
2024-03-14T15:27:09.059Z,7.09
2024-03-14T15:29:39.480Z,7.19
2024-03-14T15:32:07.851Z,7.28
2024-03-14T15:34:35.061Z,7.32
2024-03-14T15:37:02.061Z,7.19
2024-03-14T15:39:31.986Z,7.12
2024-03-14T15:42:01.938Z,7.18
2024-03-14T15:44:29.236Z,7.20
2024-03-14T15:46:59.131Z,7.41
2024-03-14T15:49:27.312Z,7.33
2024-03-14T15:51:57.458Z,7.41
2024-03-14T15:54:24.675Z,7.49
2024-03-14T15:56:51.862Z,7.57
2024-03-14T15:59:19.273Z,7.59
2024-03-14T16:01:48.189Z,7.43
2024-03-14T16:04:16.144Z,7.51
2024-03-14T16:06:43.140Z,7.47
2024-03-14T16:09:10.204Z,7.33
2024-03-14T16:11:42.261Z,7.36
2024-03-14T16:14:12.253Z,7.83
2024-03-14T16:16:39.391Z,8.15
2024-03-14T16:19:06.806Z,8.13
2024-03-14T16:21:34.000Z,7.91
2024-03-14T16:24:05.797Z,7.76
2024-03-14T16:26:35.217Z,7.65
2024-03-14T16:29:03.597Z,7.65
2024-03-14T16:31:31.425Z,7.70
2024-03-14T16:33:59.205Z,7.62
2024-03-14T16:36:26.514Z,7.62
2024-03-14T16:38:53.530Z,7.58
2024-03-14T16:41:20.514Z,7.66
2024-03-14T16:43:47.530Z,7.58
2024-03-14T16:46:15.785Z,7.51
2024-03-14T16:48:42.868Z,7.35
2024-03-14T16:51:10.069Z,7.26
2024-03-14T16:53:39.133Z,7.20
2024-03-14T16:56:07.559Z,7.18
2024-03-14T16:58:34.841Z,7.15
2024-03-14T17:01:02.071Z,7.09
2024-03-14T17:03:29.284Z,7.17
2024-03-14T17:05:58.448Z,7.00
2024-03-14T17:08:25.433Z,7.05
2024-03-14T17:10:53.299Z,7.03
2024-03-14T17:13:20.501Z,6.90
2024-03-14T17:15:47.633Z,6.96
2024-03-14T17:18:14.792Z,6.90
2024-03-14T17:20:41.860Z,6.89
2024-03-14T17:23:12.714Z,7.07
2024-03-14T17:25:40.500Z,6.99
2024-03-14T17:28:07.883Z,7.03
2024-03-14T17:30:34.962Z,7.03
2024-03-14T17:33:02.096Z,7.11
2024-03-14T17:35:31.137Z,7.24
2024-03-14T17:37:58.302Z,7.37
2024-03-14T17:40:25.458Z,7.23
2024-03-14T17:42:52.577Z,7.21
2024-03-14T17:45:23.952Z,7.12
2024-03-14T17:47:53.050Z,7.13
2024-03-14T17:50:21.718Z,7.07
2024-03-14T17:52:50.583Z,7.03
2024-03-14T17:55:17.883Z,7.37
2024-03-14T17:57:48.460Z,7.46
2024-03-14T18:00:19.488Z,7.46
2024-03-14T18:02:49.945Z,7.27
2024-03-14T18:05:17.783Z,7.36
2024-03-14T18:07:45.633Z,7.40
2024-03-14T18:10:14.706Z,7.39
2024-03-14T18:12:42.836Z,7.37
2024-03-14T18:15:10.439Z,7.30
2024-03-14T18:17:40.961Z,7.57
2024-03-14T18:20:14.250Z,7.53
2024-03-14T18:22:46.166Z,7.61
2024-03-14T18:25:18.790Z,7.42
2024-03-14T18:27:49.045Z,7.49
2024-03-14T18:30:20.895Z,7.40
2024-03-14T18:32:49.258Z,7.27
2024-03-14T18:35:21.428Z,7.30
2024-03-14T18:37:51.606Z,7.30
2024-03-14T18:40:20.585Z,7.29
2024-03-14T18:42:49.294Z,7.32
2024-03-14T18:45:18.413Z,7.26
2024-03-14T18:47:46.266Z,7.31
2024-03-14T18:50:13.618Z,7.02
2024-03-14T18:52:41.125Z,7.00
2024-03-14T18:55:08.457Z,7.02
2024-03-14T18:57:35.575Z,7.00
2024-03-14T19:00:03.011Z,7.02
2024-03-14T19:02:30.014Z,7.13
2024-03-14T19:04:57.879Z,7.25
2024-03-14T19:07:25.506Z,7.15
2024-03-14T19:09:52.537Z,7.19
2024-03-14T19:12:20.047Z,7.36
2024-03-14T19:14:47.101Z,7.25
2024-03-14T19:17:19.600Z,7.35
2024-03-14T19:19:49.610Z,7.54
2024-03-14T19:22:18.221Z,7.46
2024-03-14T19:24:45.975Z,7.47
2024-03-14T19:27:13.761Z,7.53
2024-03-14T19:29:40.805Z,7.48
2024-03-14T19:32:07.806Z,7.43
2024-03-14T19:34:35.979Z,7.32
2024-03-14T19:37:05.736Z,7.33
2024-03-14T19:39:34.490Z,7.25
2024-03-14T19:42:02.470Z,7.16
2024-03-14T19:44:30.684Z,7.17
2024-03-14T19:46:58.626Z,7.15
2024-03-14T19:49:25.896Z,7.11
2024-03-14T19:51:53.003Z,7.12
2024-03-14T19:54:20.023Z,6.99
2024-03-14T19:56:48.195Z,6.94
2024-03-14T19:59:15.528Z,6.93
2024-03-14T20:01:42.801Z,7.08
2024-03-14T20:04:10.034Z,7.30
2024-03-14T20:06:37.297Z,7.40
2024-03-14T20:09:06.459Z,7.41
2024-03-14T20:11:34.688Z,7.38
2024-03-14T20:14:02.228Z,7.23
2024-03-14T20:16:31.379Z,7.14
2024-03-14T20:18:58.959Z,6.91
2024-03-14T20:21:32.771Z,6.85
2024-03-14T20:23:59.903Z,6.79
2024-03-14T20:26:27.607Z,6.75
2024-03-14T20:28:54.918Z,6.74
2024-03-14T20:31:22.832Z,6.77
2024-03-14T20:33:50.359Z,6.79
2024-03-14T20:36:18.649Z,6.79
2024-03-14T20:38:45.779Z,6.82
2024-03-14T20:43:42.900Z,6.83
2024-03-14T20:46:11.928Z,6.94
2024-03-14T20:48:39.421Z,7.03
2024-03-14T20:51:06.476Z,6.89
2024-03-14T20:53:33.513Z,6.86
2024-03-14T20:56:10.500Z,6.85
2024-03-14T20:58:38.957Z,6.82
2024-03-14T21:01:06.413Z,6.83
2024-03-14T21:03:33.501Z,6.97
2024-03-14T21:06:03.708Z,6.95
2024-03-14T21:08:32.051Z,7.01
2024-03-14T21:11:01.486Z,6.84
2024-03-14T21:13:30.389Z,6.80
2024-03-14T21:15:57.879Z,6.97
2024-03-14T21:18:24.966Z,6.90
2024-03-14T21:20:57.213Z,6.85
2024-03-14T21:23:24.397Z,6.86
2024-03-14T21:25:53.979Z,6.87
2024-03-14T21:28:21.057Z,6.87
2024-03-14T21:30:49.702Z,6.94
2024-03-14T21:33:18.137Z,6.96
2024-03-14T21:35:49.521Z,7.01
2024-03-14T21:38:16.686Z,6.96
2024-03-14T21:40:44.138Z,6.89
2024-03-14T21:43:11.937Z,6.84
2024-03-14T21:45:40.756Z,6.79
2024-03-14T21:48:12.153Z,6.91
2024-03-14T21:50:39.619Z,6.83
2024-03-14T21:53:06.694Z,6.77
2024-03-14T21:55:34.008Z,6.76
2024-03-14T21:58:01.053Z,6.77
2024-03-14T22:00:28.246Z,6.76
2024-03-14T22:02:55.464Z,6.77
2024-03-14T22:05:22.447Z,6.79
2024-03-14T22:07:49.437Z,6.76
2024-03-14T22:10:16.641Z,6.87
2024-03-14T22:12:43.580Z,6.90
2024-03-14T22:15:14.038Z,6.89
2024-03-14T22:17:45.135Z,6.86
2024-03-14T22:20:12.818Z,6.89
2024-03-14T22:22:39.759Z,6.92
2024-03-14T22:25:11.432Z,6.85
2024-03-14T22:27:40.274Z,6.82
2024-03-14T22:30:10.212Z,6.93
2024-03-14T22:32:38.157Z,6.90
2024-03-14T22:35:05.862Z,6.92
2024-03-14T22:37:33.227Z,6.84
2024-03-14T22:40:00.500Z,6.82
2024-03-14T22:42:27.710Z,6.79
2024-03-14T22:44:55.056Z,6.81
2024-03-14T22:47:21.940Z,6.79
2024-03-14T22:49:49.034Z,6.80
2024-03-14T22:52:16.102Z,6.77
2024-03-14T22:54:45.721Z,6.87
2024-03-14T22:57:13.140Z,6.85
2024-03-14T22:59:40.231Z,6.77
2024-03-14T23:02:07.672Z,6.70
2024-03-14T23:04:36.985Z,6.65
2024-03-14T23:07:07.511Z,6.67
2024-03-14T23:09:35.393Z,6.64
2024-03-14T23:12:02.493Z,6.64
2024-03-14T23:14:30.767Z,6.64
2024-03-14T23:16:57.686Z,6.66
2024-03-14T23:19:24.625Z,6.64
2024-03-14T23:21:51.592Z,6.64
2024-03-14T23:24:19.163Z,6.66
2024-03-14T23:26:46.598Z,6.72
2024-03-14T23:29:14.019Z,6.70
2024-03-14T23:31:41.794Z,6.70
2024-03-14T23:34:10.689Z,6.74
2024-03-14T23:36:38.397Z,6.75
2024-03-14T23:39:07.793Z,6.72
2024-03-14T23:41:35.245Z,6.75
2024-03-14T23:44:02.556Z,6.79
2024-03-14T23:46:30.501Z,6.79
2024-03-14T23:48:57.814Z,6.74
2024-03-14T23:51:26.208Z,6.71
2024-03-14T23:53:54.248Z,6.75
2024-03-14T23:56:21.305Z,6.72
2024-03-14T23:58:49.712Z,6.77
